createdAt,value
2023-01-07T00:02:08.148Z,8.56
2023-01-07T00:07:12.398Z,8.67
2023-01-07T00:12:15.317Z,8.63
2023-01-07T00:17:18.149Z,8.62
2023-01-07T00:22:22.355Z,8.60
2023-01-07T00:27:25.481Z,8.74
2023-01-07T00:32:48.903Z,8.75
2023-01-07T00:37:54.528Z,8.79
2023-01-07T00:43:01.531Z,8.77
2023-01-07T00:48:05.830Z,8.65
2023-01-07T00:53:11.387Z,8.71
2023-01-07T00:58:16.154Z,8.69
2023-01-07T01:03:20.184Z,8.76
2023-01-07T01:08:24.509Z,8.73
2023-01-07T01:13:27.417Z,8.68
2023-01-07T01:18:30.345Z,8.51
2023-01-07T01:23:34.866Z,8.49
2023-01-07T01:28:37.921Z,8.45
2023-01-07T01:33:40.995Z,8.66
2023-01-07T01:38:45.449Z,8.66
2023-01-07T01:43:48.607Z,8.68
2023-01-07T01:48:55.852Z,8.85
2023-01-07T01:54:00.725Z,8.77
2023-01-07T01:59:08.284Z,8.81
2023-01-07T02:04:15.036Z,8.86
2023-01-07T02:09:20.212Z,8.84
2023-01-07T02:14:40.459Z,8.85
2023-01-07T02:20:07.024Z,8.74
2023-01-07T02:25:43.291Z,8.72
2023-01-07T02:31:09.505Z,8.64
2023-01-07T02:36:25.727Z,8.76
2023-01-07T02:41:40.695Z,8.82
2023-01-07T02:46:52.180Z,8.63
2023-01-07T02:52:17.344Z,8.63
2023-01-07T02:57:44.700Z,8.57
2023-01-07T03:03:15.035Z,8.43
2023-01-07T03:08:35.983Z,8.19
2023-01-07T03:13:44.367Z,8.05
2023-01-07T03:18:51.323Z,7.91
2023-01-07T03:23:58.141Z,7.89
2023-01-07T03:29:04.053Z,7.58
2023-01-07T03:34:13.502Z,7.74
2023-01-07T03:39:19.692Z,7.86
2023-01-07T03:44:22.636Z,7.84
2023-01-07T03:49:25.652Z,7.89
2023-01-07T03:54:30.527Z,7.89
2023-01-07T03:59:33.515Z,8.00
2023-01-07T04:04:36.871Z,8.14
2023-01-07T04:09:41.428Z,8.13
2023-01-07T04:14:45.407Z,7.89
2023-01-07T04:19:48.708Z,7.81
2023-01-07T04:24:53.110Z,7.80
2023-01-07T04:29:56.358Z,7.95
2023-01-07T04:35:00.030Z,7.93
2023-01-07T04:40:06.945Z,7.96
2023-01-07T04:45:12.617Z,7.83
2023-01-07T04:50:16.472Z,7.94
2023-01-07T04:55:21.653Z,7.92
2023-01-07T05:00:24.997Z,7.88
2023-01-07T05:05:30.351Z,7.83
2023-01-07T05:10:35.107Z,7.88
2023-01-07T05:15:38.635Z,7.74
2023-01-07T05:20:41.722Z,7.57
2023-01-07T05:25:46.236Z,7.77
2023-01-07T05:30:49.412Z,7.78
2023-01-07T05:35:52.449Z,7.93
2023-01-07T05:40:58.942Z,7.98
2023-01-07T05:46:03.635Z,7.99
2023-01-07T05:51:07.041Z,7.93
2023-01-07T05:56:11.557Z,8.07
2023-01-07T06:01:14.693Z,8.02
2023-01-07T06:06:17.796Z,7.89
2023-01-07T06:11:22.099Z,7.89
2023-01-07T06:16:25.077Z,7.88
2023-01-07T06:21:28.436Z,7.88
2023-01-07T06:26:32.704Z,8.15
2023-01-07T06:31:35.657Z,8.11
2023-01-07T06:36:38.716Z,8.26
2023-01-07T06:41:42.978Z,8.14
2023-01-07T06:46:45.944Z,8.16
2023-01-07T06:51:48.842Z,8.31
2023-01-07T06:56:53.167Z,8.36
2023-01-07T07:01:56.447Z,8.26
2023-01-07T07:06:59.478Z,8.08
2023-01-07T07:12:03.845Z,8.03
2023-01-07T07:17:06.940Z,8.10
2023-01-07T07:22:10.071Z,8.14
2023-01-07T07:27:14.452Z,8.20
2023-01-07T07:32:17.474Z,8.24
2023-01-07T07:37:20.382Z,8.37
2023-01-07T07:42:24.575Z,8.42
2023-01-07T07:47:27.519Z,8.72
2023-01-07T07:52:30.492Z,8.67
2023-01-07T07:57:34.730Z,8.55
2023-01-07T08:02:37.854Z,8.63
2023-01-07T08:07:40.875Z,8.71
2023-01-07T08:12:45.171Z,8.74
2023-01-07T08:17:48.114Z,8.81
2023-01-07T08:22:51.026Z,8.94
2023-01-07T08:27:55.813Z,8.91
2023-01-07T08:32:59.173Z,8.94
2023-01-07T08:38:03.529Z,8.77
2023-01-07T08:43:09.065Z,8.70
2023-01-07T08:48:12.243Z,8.86
2023-01-07T08:53:15.492Z,9.09
2023-01-07T08:58:19.914Z,9.33
2023-01-07T09:03:23.117Z,9.42
2023-01-07T09:08:26.039Z,9.37
2023-01-07T09:13:30.343Z,9.56
2023-01-07T09:18:33.305Z,9.90
2023-01-07T09:23:36.393Z,10.05
2023-01-07T09:28:40.717Z,10.19
2023-01-07T09:33:43.695Z,9.95
2023-01-07T09:38:46.711Z,9.80
2023-01-07T09:43:59.949Z,9.80
2023-01-07T09:49:05.482Z,9.95
2023-01-07T09:54:20.929Z,9.86
2023-01-07T09:59:25.471Z,9.88
2023-01-07T10:04:39.061Z,9.83
2023-01-07T10:09:54.165Z,10.08
2023-01-07T10:15:16.607Z,9.78
2023-01-07T10:20:30.776Z,10.00
2023-01-07T10:25:37.838Z,9.99
2023-01-07T10:30:45.757Z,10.11
2023-01-07T10:35:52.171Z,10.16
2023-01-07T10:40:58.562Z,10.19
2023-01-07T10:46:22.441Z,10.26
2023-01-07T10:51:51.607Z,10.36
2023-01-07T10:57:01.197Z,10.63
2023-01-07T11:02:06.257Z,10.91
2023-01-07T11:07:15.665Z,11.12
2023-01-07T11:12:28.929Z,10.95
2023-01-07T11:17:38.367Z,10.78
2023-01-07T11:22:41.330Z,10.90
2023-01-07T11:27:46.848Z,11.11
2023-01-07T11:32:59.128Z,11.19
2023-01-07T11:38:02.194Z,11.39
2023-01-07T11:43:23.033Z,11.31
2023-01-07T11:48:30.362Z,11.26
2023-01-07T11:53:36.993Z,10.70
2023-01-07T11:58:41.790Z,10.94
2023-01-07T12:04:02.990Z,10.89
2023-01-07T12:09:19.605Z,11.25
2023-01-07T12:14:28.095Z,11.26
2023-01-07T12:19:58.844Z,11.28
2023-01-07T12:25:23.442Z,11.33
2023-01-07T12:30:43.934Z,11.66
2023-01-07T12:35:49.221Z,11.82
2023-01-07T12:40:55.886Z,11.60
2023-01-07T12:46:01.169Z,11.11
2023-01-07T12:51:13.100Z,10.91
2023-01-07T12:56:23.118Z,11.01
2023-01-07T13:01:30.766Z,10.58
2023-01-07T13:06:46.754Z,10.45
2023-01-07T13:12:42.190Z,10.28
2023-01-07T13:17:33.999Z,10.60
2023-01-07T13:22:44.479Z,10.65
2023-01-07T13:28:21.670Z,10.74
2023-01-07T13:33:29.954Z,10.42
2023-01-07T13:39:02.852Z,10.53
2023-01-07T13:44:26.485Z,10.50
2023-01-07T13:49:32.207Z,10.45
2023-01-07T13:54:56.241Z,10.05
2023-01-07T14:00:01.435Z,10.07
2023-01-07T14:05:25.489Z,9.95
2023-01-07T14:10:32.461Z,9.99
2023-01-07T14:15:55.932Z,9.82
2023-01-07T14:21:10.314Z,9.85
2023-01-07T14:26:27.218Z,9.77
2023-01-07T14:31:31.670Z,9.55
2023-01-07T14:37:11.626Z,9.57
2023-01-07T14:42:42.274Z,9.38
2023-01-07T14:47:55.131Z,9.38
2023-01-07T14:53:38.210Z,9.25
2023-01-07T14:58:59.630Z,9.18
2023-01-07T15:04:32.838Z,9.09
2023-01-07T15:10:00.250Z,8.91
2023-01-07T15:15:30.372Z,8.72
2023-01-07T15:20:44.963Z,8.49
2023-01-07T15:25:55.442Z,8.43
2023-01-07T15:31:08.685Z,8.34
2023-01-07T15:36:15.666Z,8.28
2023-01-07T15:41:26.107Z,8.15
2023-01-07T15:46:32.534Z,8.03
2023-01-07T15:51:40.103Z,7.92
2023-01-07T15:56:43.283Z,7.86
2023-01-07T16:01:50.786Z,7.74
2023-01-07T16:06:57.426Z,7.62
2023-01-07T16:12:00.342Z,7.67
2023-01-07T16:17:14.253Z,7.66
2023-01-07T16:22:19.682Z,7.62
2023-01-07T16:27:29.079Z,7.53
2023-01-07T16:32:34.327Z,7.47
2023-01-07T16:37:40.334Z,7.41
2023-01-07T16:42:48.158Z,7.31
2023-01-07T16:48:19.236Z,7.18
2023-01-07T16:53:25.958Z,7.09
2023-01-07T16:58:31.569Z,6.98
2023-01-07T17:03:45.488Z,6.96
2023-01-07T17:08:50.585Z,6.85
2023-01-07T17:13:53.831Z,6.71
2023-01-07T17:18:59.803Z,6.31
2023-01-07T17:24:02.772Z,6.49
2023-01-07T17:29:13.156Z,6.39
2023-01-07T17:34:18.172Z,6.35
2023-01-07T17:39:21.109Z,6.11
2023-01-07T17:44:24.162Z,5.97
2023-01-07T17:49:28.428Z,5.95
2023-01-07T17:54:32.228Z,5.70
2023-01-07T17:59:35.139Z,5.80
2023-01-07T18:04:39.419Z,5.90
2023-01-07T18:09:42.560Z,5.80
2023-01-07T18:14:45.471Z,5.44
2023-01-07T18:19:50.698Z,5.37
2023-01-07T18:24:53.651Z,5.41
2023-01-07T18:29:56.685Z,5.47
2023-01-07T18:35:00.972Z,5.47
2023-01-07T18:40:04.603Z,5.24
2023-01-07T18:45:08.734Z,5.18
2023-01-07T18:50:13.717Z,5.22
2023-01-07T18:55:17.898Z,5.13
2023-01-07T19:00:21.131Z,5.00
2023-01-07T19:05:25.410Z,5.00
2023-01-07T19:10:29.112Z,4.96
2023-01-07T19:15:31.977Z,4.80
2023-01-07T19:20:36.645Z,4.75
2023-01-07T19:25:39.585Z,4.62
2023-01-07T19:30:42.581Z,4.62
2023-01-07T19:35:46.852Z,4.46
2023-01-07T19:40:49.722Z,4.48
2023-01-07T19:45:55.236Z,4.50
2023-01-07T19:51:01.127Z,4.24
2023-01-07T19:56:05.725Z,4.27
2023-01-07T20:01:11.382Z,4.18
2023-01-07T20:06:17.711Z,4.12
2023-01-07T20:11:20.669Z,4.08
2023-01-07T20:16:24.819Z,3.75
2023-01-07T20:21:29.180Z,4.01
2023-01-07T20:26:34.233Z,3.84
2023-01-07T20:31:37.316Z,3.95
2023-01-07T20:36:41.744Z,3.91
2023-01-07T20:41:44.657Z,3.86
2023-01-07T20:46:47.561Z,3.85
2023-01-07T20:51:51.797Z,3.60
2023-01-07T20:56:54.725Z,3.66
2023-01-07T21:01:57.797Z,3.33
2023-01-07T21:07:02.203Z,3.49
2023-01-07T21:12:05.639Z,3.31
2023-01-07T21:17:08.659Z,3.16
2023-01-07T21:22:12.956Z,3.14
2023-01-07T21:27:15.897Z,3.30
2023-01-07T21:32:18.826Z,3.18
2023-01-07T21:37:23.074Z,3.11
2023-01-07T21:42:26.026Z,3.15
2023-01-07T21:47:29.849Z,2.99
2023-01-07T21:52:35.165Z,3.12
2023-01-07T21:57:38.168Z,3.10
2023-01-07T22:02:41.091Z,3.12
2023-01-07T22:07:45.353Z,3.08
2023-01-07T22:12:48.516Z,2.99
2023-01-07T22:17:51.442Z,3.01
2023-01-07T22:22:55.707Z,3.02
2023-01-07T22:27:59.947Z,2.95
2023-01-07T22:33:02.864Z,2.96
2023-01-07T22:38:07.773Z,2.90
2023-01-07T22:43:15.511Z,2.89
2023-01-07T22:48:23.896Z,2.58
2023-01-07T22:53:30.033Z,2.76
2023-01-07T22:58:32.962Z,2.37
2023-01-07T23:03:36.049Z,2.27
2023-01-07T23:08:40.656Z,2.52
2023-01-07T23:13:43.577Z,2.45
2023-01-07T23:18:46.455Z,2.41
2023-01-07T23:23:50.705Z,2.29
2023-01-07T23:28:53.610Z,2.05
2023-01-07T23:33:56.617Z,2.33
2023-01-07T23:39:00.902Z,2.40
2023-01-07T23:44:03.799Z,2.21
2023-01-07T23:49:06.647Z,2.08
2023-01-07T23:54:11.110Z,2.15
2023-01-07T23:59:14.063Z,2.11
